createdAt,value
2017-07-10T00:02:12.087Z,19.30
2017-07-10T00:04:39.671Z,19.20
2017-07-10T00:07:07.251Z,19.10
2017-07-10T00:09:34.810Z,19.00
2017-07-10T00:12:02.444Z,18.80
2017-07-10T00:14:30.037Z,18.70
2017-07-10T00:16:57.681Z,18.60
2017-07-10T00:19:25.394Z,18.50
2017-07-10T00:21:52.945Z,18.40
2017-07-10T00:24:20.652Z,18.40
2017-07-10T00:26:48.287Z,18.40
2017-07-10T00:32:01.127Z,18.30
2017-07-10T00:34:28.701Z,18.30
2017-07-10T00:36:57.262Z,18.30
2017-07-10T00:39:24.847Z,18.30
2017-07-10T00:41:53.199Z,18.30
2017-07-10T00:44:20.763Z,18.30
2017-07-10T00:46:48.506Z,18.30
2017-07-10T00:49:16.111Z,18.30
2017-07-10T00:51:43.689Z,18.40
2017-07-10T00:54:12.070Z,18.40
2017-07-10T00:56:40.411Z,18.40
2017-07-10T00:59:07.994Z,18.40
2017-07-10T01:01:35.558Z,18.30
2017-07-10T01:04:03.202Z,18.30
2017-07-10T01:06:30.777Z,18.30
2017-07-10T01:08:58.322Z,18.30
2017-07-10T01:11:25.913Z,18.30
2017-07-10T01:13:53.470Z,18.30
2017-07-10T01:16:21.023Z,18.30
2017-07-10T01:18:48.612Z,18.40
2017-07-10T01:21:16.931Z,18.40
2017-07-10T01:23:45.530Z,18.40
2017-07-10T01:26:13.116Z,18.30
2017-07-10T01:28:40.679Z,18.40
2017-07-10T01:31:08.254Z,18.40
2017-07-10T01:33:36.601Z,18.50
2017-07-10T01:36:04.335Z,18.40
2017-07-10T01:38:34.460Z,18.40
2017-07-10T01:41:02.050Z,18.40
2017-07-10T01:43:29.628Z,18.30
2017-07-10T01:45:57.189Z,18.30
2017-07-10T01:48:24.758Z,18.20
2017-07-10T01:50:52.311Z,18.30
2017-07-10T01:53:19.879Z,18.30
2017-07-10T01:55:47.523Z,18.30
2017-07-10T01:58:15.096Z,18.40
2017-07-10T02:00:42.659Z,18.40
2017-07-10T02:03:10.241Z,18.40
2017-07-10T02:05:37.826Z,18.40
2017-07-10T02:08:05.412Z,18.30
2017-07-10T02:10:33.074Z,18.20
2017-07-10T02:13:00.635Z,18.20
2017-07-10T02:15:28.209Z,18.20
2017-07-10T02:17:55.769Z,18.20
2017-07-10T02:20:23.331Z,18.20
2017-07-10T02:22:50.918Z,18.20
2017-07-10T02:25:18.658Z,18.30
2017-07-10T02:27:46.226Z,18.30
2017-07-10T02:30:13.818Z,18.30
2017-07-10T02:32:41.439Z,18.20
2017-07-10T02:35:09.021Z,18.20
2017-07-10T02:37:36.607Z,18.10
2017-07-10T02:40:04.193Z,18.10
2017-07-10T02:42:33.065Z,18.00
2017-07-10T02:45:00.642Z,18.00
2017-07-10T02:47:28.992Z,17.90
2017-07-10T02:49:56.546Z,17.90
2017-07-10T02:52:24.128Z,17.80
2017-07-10T02:54:51.695Z,17.80
2017-07-10T02:57:19.263Z,17.80
2017-07-10T02:59:46.838Z,17.70
2017-07-10T03:02:14.476Z,17.80
2017-07-10T03:04:42.041Z,17.80
2017-07-10T03:07:09.810Z,17.70
2017-07-10T03:09:37.542Z,17.70
2017-07-10T03:12:05.339Z,17.70
2017-07-10T03:14:32.930Z,17.80
2017-07-10T03:17:00.499Z,17.80
2017-07-10T03:19:28.114Z,17.80
2017-07-10T03:21:55.851Z,17.80
2017-07-10T03:24:23.412Z,17.90
2017-07-10T03:26:50.999Z,17.90
2017-07-10T03:29:18.555Z,17.90
2017-07-10T03:31:46.123Z,17.90
2017-07-10T03:34:13.698Z,18.00
2017-07-10T03:36:41.271Z,18.00
2017-07-10T03:39:08.847Z,18.00
2017-07-10T03:41:37.175Z,18.00
2017-07-10T03:44:04.747Z,17.90
2017-07-10T03:46:32.387Z,18.00
2017-07-10T03:48:59.959Z,18.00
2017-07-10T03:51:27.551Z,18.10
2017-07-10T03:53:55.111Z,18.10
2017-07-10T03:56:22.684Z,18.10
2017-07-10T03:58:50.263Z,18.10
2017-07-10T04:01:18.586Z,18.20
2017-07-10T04:03:46.162Z,18.20
2017-07-10T04:06:13.738Z,18.20
2017-07-10T04:08:41.318Z,18.30
2017-07-10T04:11:08.867Z,18.30
2017-07-10T04:13:36.422Z,18.30
2017-07-10T04:16:13.951Z,18.30
2017-07-10T04:18:42.270Z,18.40
2017-07-10T04:21:09.851Z,18.40
2017-07-10T04:23:37.535Z,18.40
2017-07-10T04:26:05.101Z,18.40
2017-07-10T04:28:32.671Z,18.40
2017-07-10T04:31:01.009Z,18.40
2017-07-10T04:33:28.575Z,18.40
2017-07-10T04:35:56.148Z,18.50
2017-07-10T04:38:23.725Z,18.50
2017-07-10T04:40:51.311Z,18.50
2017-07-10T04:43:18.892Z,18.50
2017-07-10T04:45:46.475Z,18.50
2017-07-10T04:48:14.034Z,18.50
2017-07-10T04:50:41.638Z,18.50
2017-07-10T04:53:09.190Z,18.50
2017-07-10T04:55:36.743Z,18.50
2017-07-10T04:58:04.315Z,18.50
2017-07-10T05:00:31.916Z,18.40
2017-07-10T05:03:00.265Z,18.40
2017-07-10T05:05:27.836Z,18.40
2017-07-10T05:07:55.754Z,18.40
2017-07-10T05:10:23.571Z,18.30
2017-07-10T05:12:51.264Z,18.40
2017-07-10T05:15:18.837Z,18.40
2017-07-10T05:17:46.379Z,18.50
2017-07-10T05:20:13.962Z,18.50
2017-07-10T05:22:41.526Z,18.50
2017-07-10T05:25:09.111Z,18.50
2017-07-10T05:27:36.697Z,18.50
2017-07-10T05:30:04.263Z,18.50
2017-07-10T05:32:31.834Z,18.50
2017-07-10T05:34:59.498Z,18.50
2017-07-10T05:37:27.078Z,18.50
2017-07-10T05:39:55.415Z,18.60
2017-07-10T05:42:22.992Z,18.60
2017-07-10T05:44:51.003Z,18.60
2017-07-10T05:47:18.594Z,18.70
2017-07-10T05:49:46.162Z,18.80
2017-07-10T05:52:13.743Z,18.80
2017-07-10T05:54:41.381Z,18.80
2017-07-10T05:57:08.966Z,18.90
2017-07-10T05:59:36.556Z,18.90
2017-07-10T06:02:04.103Z,18.90
2017-07-10T06:04:31.677Z,19.00
2017-07-10T06:06:59.249Z,19.00
2017-07-10T06:09:27.574Z,19.00
2017-07-10T06:11:55.135Z,19.00
2017-07-10T06:14:22.728Z,19.00
2017-07-10T06:16:50.306Z,19.00
2017-07-10T06:19:17.908Z,19.00
2017-07-10T06:21:45.479Z,19.10
2017-07-10T06:24:13.050Z,19.20
2017-07-10T06:26:40.609Z,19.20
2017-07-10T06:29:08.190Z,19.10
2017-07-10T06:31:35.792Z,19.10
2017-07-10T06:34:04.138Z,19.20
2017-07-10T06:36:31.739Z,19.10
2017-07-10T06:39:00.255Z,19.30
2017-07-10T06:41:27.822Z,19.30
2017-07-10T06:43:55.402Z,19.30
2017-07-10T06:46:22.996Z,19.30
2017-07-10T06:48:50.616Z,19.30
2017-07-10T06:51:18.185Z,19.30
2017-07-10T06:53:45.883Z,19.40
2017-07-10T06:56:13.450Z,19.40
2017-07-10T06:58:41.059Z,19.50
2017-07-10T07:01:08.663Z,19.50
2017-07-10T07:03:36.234Z,19.60
2017-07-10T07:06:03.823Z,19.50
2017-07-10T07:08:31.389Z,19.60
2017-07-10T07:10:58.974Z,19.60
2017-07-10T07:13:26.551Z,19.60
2017-07-10T07:15:54.145Z,19.70
2017-07-10T07:18:21.894Z,19.80
2017-07-10T07:20:49.693Z,19.80
2017-07-10T07:23:18.042Z,20.00
2017-07-10T07:25:45.689Z,20.00
2017-07-10T07:28:14.338Z,20.00
2017-07-10T07:30:41.935Z,20.00
2017-07-10T07:33:09.561Z,20.00
2017-07-10T07:35:37.159Z,19.90
2017-07-10T07:38:04.762Z,19.90
2017-07-10T07:40:32.472Z,20.00
2017-07-10T07:43:00.149Z,20.00
2017-07-10T07:45:27.742Z,20.20
2017-07-10T07:47:55.471Z,20.30
2017-07-10T07:50:23.062Z,20.50
2017-07-10T07:52:50.701Z,20.90
2017-07-10T07:55:19.008Z,21.80
2017-07-10T07:57:46.599Z,21.70
2017-07-10T08:00:14.951Z,23.10
2017-07-10T08:02:42.548Z,23.10
2017-07-10T08:05:10.909Z,23.60
2017-07-10T08:07:38.519Z,23.60
2017-07-10T08:10:06.097Z,23.80
2017-07-10T08:12:33.673Z,23.60
2017-07-10T08:15:01.271Z,23.80
2017-07-10T08:17:28.897Z,23.80
2017-07-10T08:19:56.566Z,23.60
2017-07-10T08:22:24.163Z,23.50
2017-07-10T08:24:52.524Z,23.50
2017-07-10T08:27:20.131Z,23.40
2017-07-10T08:29:47.725Z,24.10
2017-07-10T08:32:15.324Z,24.60
2017-07-10T08:34:42.983Z,25.10
2017-07-10T08:37:10.625Z,25.30
2017-07-10T08:39:38.196Z,25.60
2017-07-10T08:42:05.860Z,26.20
2017-07-10T08:44:33.434Z,26.30
2017-07-10T08:47:01.016Z,26.70
2017-07-10T08:49:29.381Z,26.60
2017-07-10T08:51:56.937Z,26.50
2017-07-10T08:54:24.501Z,26.40
2017-07-10T08:56:52.863Z,28.10
2017-07-10T08:59:20.482Z,28.00
2017-07-10T09:01:48.064Z,28.30
2017-07-10T09:04:15.623Z,27.80
2017-07-10T09:06:43.181Z,28.70
2017-07-10T09:09:10.754Z,29.50
2017-07-10T09:11:38.360Z,28.70
2017-07-10T09:14:05.944Z,27.90
2017-07-10T09:16:34.284Z,29.60
2017-07-10T09:19:01.988Z,29.50
2017-07-10T09:21:30.339Z,28.60
2017-07-10T09:23:57.895Z,28.60
2017-07-10T09:26:25.485Z,27.90
2017-07-10T09:28:53.051Z,27.40
2017-07-10T09:31:21.482Z,26.90
2017-07-10T09:33:49.194Z,26.90
2017-07-10T09:36:16.744Z,27.70
2017-07-10T09:38:44.327Z,28.20
2017-07-10T09:41:12.671Z,28.90
2017-07-10T09:43:40.222Z,28.90
2017-07-10T09:46:07.817Z,29.50
2017-07-10T09:48:35.393Z,29.50
2017-07-10T09:51:03.010Z,30.00
2017-07-10T09:53:30.579Z,29.30
2017-07-10T09:55:58.158Z,29.40
2017-07-10T09:58:25.745Z,29.30
2017-07-10T10:00:53.311Z,29.40
2017-07-10T10:03:20.879Z,29.00
2017-07-10T10:05:49.223Z,29.80
2017-07-10T10:08:17.065Z,29.80
2017-07-10T10:10:44.636Z,29.00
2017-07-10T10:13:12.203Z,28.80
2017-07-10T10:15:39.810Z,28.40
2017-07-10T10:18:07.408Z,27.70
2017-07-10T10:20:34.962Z,27.10
2017-07-10T10:23:02.546Z,27.00
2017-07-10T10:25:30.123Z,27.60
2017-07-10T10:27:57.708Z,27.90
2017-07-10T10:30:25.297Z,27.90
2017-07-10T10:32:53.686Z,28.20
2017-07-10T10:35:22.063Z,28.60
2017-07-10T10:37:50.409Z,28.60
2017-07-10T10:40:17.991Z,28.60
2017-07-10T10:42:45.555Z,29.10
2017-07-10T10:45:14.077Z,30.50
2017-07-10T10:47:41.654Z,30.50
2017-07-10T10:50:09.234Z,31.00
2017-07-10T10:52:36.947Z,31.80
2017-07-10T10:55:04.528Z,32.10
2017-07-10T10:57:32.123Z,32.70
2017-07-10T10:59:59.684Z,32.00
2017-07-10T11:02:27.276Z,31.70
2017-07-10T11:04:54.853Z,30.90
2017-07-10T11:07:22.493Z,30.30
2017-07-10T11:09:50.113Z,30.50
2017-07-10T11:12:17.676Z,31.50
2017-07-10T11:14:45.260Z,31.80
2017-07-10T11:17:12.831Z,31.80
2017-07-10T11:19:40.387Z,31.60
2017-07-10T11:22:07.970Z,31.20
2017-07-10T11:24:35.573Z,32.20
2017-07-10T11:27:03.259Z,32.20
2017-07-10T11:29:30.848Z,32.40
2017-07-10T11:31:58.427Z,32.20
2017-07-10T11:34:26.025Z,32.60
2017-07-10T11:36:53.597Z,33.00
2017-07-10T11:39:21.193Z,32.30
2017-07-10T11:41:48.798Z,32.00
2017-07-10T11:44:17.160Z,31.90
2017-07-10T11:46:44.776Z,31.90
2017-07-10T11:49:12.348Z,32.60
2017-07-10T11:51:39.917Z,32.50
2017-07-10T11:54:07.486Z,32.80
2017-07-10T11:56:35.066Z,32.80
2017-07-10T11:59:02.645Z,32.10
2017-07-10T12:01:30.252Z,32.20
2017-07-10T12:03:57.806Z,33.00
2017-07-10T12:06:25.371Z,33.20
2017-07-10T12:08:52.963Z,34.00
2017-07-10T12:11:21.472Z,33.40
2017-07-10T12:13:49.071Z,33.40
2017-07-10T12:16:17.413Z,31.20
2017-07-10T12:18:45.008Z,31.10
2017-07-10T12:21:12.666Z,31.50
2017-07-10T12:23:41.004Z,34.00
2017-07-10T12:26:08.689Z,34.00
2017-07-10T12:28:36.228Z,34.40
2017-07-10T12:31:03.822Z,33.30
2017-07-10T12:33:31.428Z,31.90
2017-07-10T12:35:59.288Z,31.50
2017-07-10T12:38:26.864Z,31.00
2017-07-10T12:40:54.413Z,30.80
2017-07-10T12:43:22.099Z,30.80
2017-07-10T12:45:49.659Z,30.80
2017-07-10T12:48:17.230Z,30.50
2017-07-10T12:50:44.788Z,30.20
2017-07-10T12:53:12.450Z,29.50
2017-07-10T12:55:40.062Z,29.40
2017-07-10T12:58:07.625Z,29.40
2017-07-10T13:00:35.203Z,29.70
2017-07-10T13:03:03.613Z,30.70
2017-07-10T13:05:31.187Z,30.70
2017-07-10T13:07:58.783Z,30.60
2017-07-10T13:10:26.406Z,30.30
2017-07-10T13:12:53.968Z,30.20
2017-07-10T13:15:21.550Z,29.60
2017-07-10T13:17:49.137Z,29.00
2017-07-10T13:20:16.781Z,28.70
2017-07-10T13:22:44.358Z,28.60
2017-07-10T13:25:11.918Z,28.80
2017-07-10T13:27:39.505Z,29.20
2017-07-10T13:30:07.075Z,29.20
2017-07-10T13:32:35.432Z,29.20
2017-07-10T13:35:03.150Z,29.10
2017-07-10T13:37:30.817Z,29.20
2017-07-10T13:39:58.409Z,29.20
2017-07-10T13:42:25.971Z,28.80
2017-07-10T13:44:53.698Z,28.10
2017-07-10T13:47:22.570Z,27.30
2017-07-10T13:49:50.138Z,27.30
2017-07-10T13:52:17.748Z,27.20
2017-07-10T13:54:45.328Z,27.10
2017-07-10T13:57:12.912Z,27.10
2017-07-10T13:59:40.490Z,27.00
2017-07-10T14:02:08.812Z,27.60
2017-07-10T14:04:36.398Z,27.50
2017-07-10T14:07:03.962Z,27.90
2017-07-10T14:09:31.556Z,28.30
2017-07-10T14:11:59.120Z,28.90
2017-07-10T14:14:27.460Z,28.80
2017-07-10T14:16:55.063Z,28.80
2017-07-10T14:19:22.754Z,28.80
2017-07-10T14:21:50.350Z,28.90
2017-07-10T14:24:17.910Z,28.60
2017-07-10T14:26:45.471Z,28.10
2017-07-10T14:29:13.094Z,27.80
2017-07-10T14:31:41.458Z,27.60
2017-07-10T14:34:09.799Z,27.60
2017-07-10T14:36:37.358Z,27.60
2017-07-10T14:39:04.953Z,27.30
2017-07-10T14:41:32.587Z,27.20
2017-07-10T14:44:00.171Z,27.10
2017-07-10T14:46:27.746Z,27.00
2017-07-10T14:48:55.296Z,27.00
2017-07-10T14:51:22.879Z,26.90
2017-07-10T14:53:51.274Z,27.00
2017-07-10T14:56:19.655Z,26.70
2017-07-10T14:58:47.235Z,26.60
2017-07-10T15:01:14.786Z,26.30
2017-07-10T15:03:42.498Z,25.60
2017-07-10T15:06:10.253Z,25.50
2017-07-10T15:08:37.900Z,25.30
2017-07-10T15:11:05.489Z,25.00
2017-07-10T15:13:33.053Z,25.10
2017-07-10T15:16:00.640Z,25.00
2017-07-10T15:18:28.263Z,25.30
2017-07-10T15:20:55.884Z,25.40
2017-07-10T15:23:24.359Z,25.20
2017-07-10T15:25:52.836Z,25.10
2017-07-10T15:28:20.560Z,25.10
2017-07-10T15:30:48.275Z,25.30
2017-07-10T15:33:15.855Z,25.50
2017-07-10T15:35:43.594Z,25.80
2017-07-10T15:38:11.298Z,25.50
2017-07-10T15:40:39.037Z,25.50
2017-07-10T15:43:06.729Z,25.50
2017-07-10T15:45:34.907Z,25.70
2017-07-10T15:48:03.222Z,25.60
2017-07-10T15:50:30.943Z,25.30
2017-07-10T15:52:59.307Z,25.10
2017-07-10T15:55:27.837Z,25.00
2017-07-10T15:57:55.534Z,25.00
2017-07-10T16:00:23.310Z,24.90
2017-07-10T16:02:50.976Z,24.60
2017-07-10T16:05:18.723Z,24.50
2017-07-10T16:07:47.524Z,24.30
2017-07-10T16:10:15.189Z,24.20
2017-07-10T16:12:42.959Z,24.20
2017-07-10T16:15:10.749Z,24.10
2017-07-10T16:17:38.401Z,24.00
2017-07-10T16:20:06.022Z,23.90
2017-07-10T16:22:33.681Z,23.90
2017-07-10T16:25:02.211Z,23.80
2017-07-10T16:27:29.861Z,23.80
2017-07-10T16:29:58.314Z,23.80
2017-07-10T16:32:25.939Z,23.80
2017-07-10T16:34:53.722Z,23.70
2017-07-10T16:37:21.423Z,23.80
2017-07-10T16:39:49.857Z,23.80
2017-07-10T16:42:17.504Z,23.80
2017-07-10T16:44:45.398Z,23.80
2017-07-10T16:47:13.030Z,23.90
2017-07-10T16:49:40.586Z,23.90
2017-07-10T16:52:08.158Z,23.90
2017-07-10T16:54:35.751Z,23.80
2017-07-10T16:57:03.324Z,23.80
2017-07-10T16:59:30.903Z,23.80
2017-07-10T17:01:58.463Z,23.80
2017-07-10T17:04:26.121Z,23.70
2017-07-10T17:06:53.708Z,23.70
2017-07-10T17:09:22.042Z,23.70
2017-07-10T17:11:49.636Z,23.70
2017-07-10T17:14:17.983Z,23.60
2017-07-10T17:16:45.535Z,23.60
2017-07-10T17:19:13.117Z,23.50
2017-07-10T17:21:40.699Z,23.60
2017-07-10T17:24:08.315Z,23.60
2017-07-10T17:26:35.922Z,23.70
2017-07-10T17:29:03.488Z,23.70
2017-07-10T17:31:31.067Z,23.80
2017-07-10T17:33:59.418Z,23.60
2017-07-10T17:36:27.005Z,23.50
2017-07-10T17:38:55.364Z,23.40
2017-07-10T17:41:22.944Z,23.30
2017-07-10T17:43:51.304Z,23.30
2017-07-10T17:46:18.932Z,23.30
2017-07-10T17:48:46.495Z,23.30
2017-07-10T17:51:14.111Z,23.20
2017-07-10T17:53:41.700Z,23.20
2017-07-10T17:56:09.283Z,23.20
2017-07-10T17:58:36.877Z,23.10
2017-07-10T18:01:04.488Z,23.00
2017-07-10T18:03:32.179Z,22.90
2017-07-10T18:05:59.765Z,22.90
2017-07-10T18:08:27.539Z,22.90
2017-07-10T18:10:55.097Z,22.90
2017-07-10T18:13:22.677Z,22.80
2017-07-10T18:15:50.271Z,22.80
2017-07-10T18:18:17.836Z,22.80
2017-07-10T18:20:45.457Z,22.70
2017-07-10T18:23:13.028Z,22.60
2017-07-10T18:25:42.600Z,22.60
2017-07-10T18:28:10.163Z,22.50
2017-07-10T18:30:37.743Z,22.40
2017-07-10T18:33:05.328Z,22.40
2017-07-10T18:35:33.730Z,22.20
2017-07-10T18:38:02.105Z,22.10
2017-07-10T18:40:30.485Z,22.00
2017-07-10T18:42:58.860Z,21.90
2017-07-10T18:45:26.488Z,21.90
2017-07-10T18:47:54.064Z,21.90
2017-07-10T18:50:21.645Z,21.90
2017-07-10T18:52:49.995Z,21.80
2017-07-10T18:55:17.618Z,21.80
2017-07-10T18:57:45.253Z,21.70
2017-07-10T19:00:13.663Z,21.70
2017-07-10T19:02:41.292Z,21.70
2017-07-10T19:05:08.884Z,21.70
2017-07-10T19:07:36.655Z,21.60
2017-07-10T19:10:04.229Z,21.60
2017-07-10T19:12:31.813Z,21.50
2017-07-10T19:14:59.563Z,21.50
2017-07-10T19:17:27.224Z,21.40
2017-07-10T19:19:54.812Z,21.40
2017-07-10T19:22:22.415Z,21.30
2017-07-10T19:24:50.857Z,21.20
2017-07-10T19:27:19.149Z,21.20
2017-07-10T19:29:46.735Z,21.10
2017-07-10T19:32:15.086Z,21.10
2017-07-10T19:34:42.690Z,21.10
2017-07-10T19:37:11.089Z,21.00
2017-07-10T19:39:38.683Z,20.90
2017-07-10T19:42:06.310Z,20.90
2017-07-10T19:44:33.942Z,20.90
2017-07-10T19:47:02.274Z,20.90
2017-07-10T19:49:30.025Z,20.80
2017-07-10T19:51:57.607Z,20.90
2017-07-10T19:54:25.192Z,20.80
2017-07-10T19:56:52.775Z,20.80
2017-07-10T19:59:20.478Z,20.80
2017-07-10T20:01:48.106Z,20.70
2017-07-10T20:04:15.690Z,20.70
2017-07-10T20:06:43.263Z,20.60
2017-07-10T20:09:10.942Z,20.50
2017-07-10T20:11:38.507Z,20.30
2017-07-10T20:14:06.094Z,20.20
2017-07-10T20:16:33.670Z,20.30
2017-07-10T20:19:01.259Z,20.20
2017-07-10T20:21:29.609Z,20.10
2017-07-10T20:23:59.348Z,20.00
2017-07-10T20:26:26.954Z,19.90
2017-07-10T20:28:54.557Z,19.80
2017-07-10T20:31:22.396Z,19.80
2017-07-10T20:33:53.660Z,19.80
2017-07-10T20:36:22.771Z,19.80
2017-07-10T20:38:50.478Z,19.80
2017-07-10T20:41:18.137Z,20.00
2017-07-10T20:43:46.457Z,20.10
2017-07-10T20:46:14.126Z,20.10
2017-07-10T20:48:42.215Z,20.10
2017-07-10T20:51:10.591Z,20.10
2017-07-10T20:53:38.229Z,20.10
2017-07-10T20:56:05.820Z,20.10
2017-07-10T20:58:33.384Z,20.10
2017-07-10T21:01:01.200Z,20.10
2017-07-10T21:03:28.922Z,20.10
2017-07-10T21:05:56.525Z,20.00
2017-07-10T21:08:24.095Z,20.00
2017-07-10T21:10:51.658Z,20.00
2017-07-10T21:13:19.263Z,19.90
2017-07-10T21:15:46.835Z,19.90
2017-07-10T21:18:16.771Z,19.90
2017-07-10T21:20:44.362Z,19.90
2017-07-10T21:23:11.945Z,19.90
2017-07-10T21:25:39.508Z,19.80
2017-07-10T21:28:07.082Z,19.80
2017-07-10T21:30:35.447Z,19.70
2017-07-10T21:33:03.026Z,19.70
2017-07-10T21:35:31.331Z,19.70
2017-07-10T21:37:58.907Z,19.70
2017-07-10T21:40:26.493Z,19.60
2017-07-10T21:42:54.040Z,19.60
2017-07-10T21:45:22.033Z,19.60
2017-07-10T21:47:49.594Z,19.50
2017-07-10T21:50:17.166Z,19.50
2017-07-10T21:52:44.791Z,19.50
2017-07-10T21:55:12.467Z,19.40
2017-07-10T21:57:40.058Z,19.40
2017-07-10T22:00:07.617Z,19.40
2017-07-10T22:02:35.255Z,19.40
2017-07-10T22:05:02.814Z,19.50
2017-07-10T22:07:30.473Z,19.50
2017-07-10T22:09:58.843Z,19.50
2017-07-10T22:12:26.415Z,19.50
2017-07-10T22:14:54.002Z,19.50
2017-07-10T22:17:21.589Z,19.50
2017-07-10T22:19:49.922Z,19.60
2017-07-10T22:22:17.464Z,19.60
2017-07-10T22:24:45.047Z,19.60
2017-07-10T22:27:12.612Z,19.60
2017-07-10T22:29:40.160Z,19.50
2017-07-10T22:32:07.770Z,19.50
2017-07-10T22:34:35.339Z,19.40
2017-07-10T22:37:02.915Z,19.20
2017-07-10T22:39:30.548Z,19.10
2017-07-10T22:41:58.886Z,18.80
2017-07-10T22:44:26.454Z,18.80
2017-07-10T22:46:54.190Z,18.80
2017-07-10T22:49:22.015Z,18.70
2017-07-10T22:51:49.809Z,18.70
2017-07-10T22:54:17.550Z,18.70
2017-07-10T22:56:46.024Z,18.60
2017-07-10T22:59:13.851Z,18.70
2017-07-10T23:01:41.488Z,18.80
2017-07-10T23:04:09.277Z,18.90
2017-07-10T23:06:36.948Z,19.00
2017-07-10T23:09:04.657Z,19.00
2017-07-10T23:11:32.340Z,19.00
2017-07-10T23:14:00.862Z,19.10
2017-07-10T23:16:28.633Z,19.10
2017-07-10T23:18:57.482Z,19.20
2017-07-10T23:21:26.069Z,19.10
2017-07-10T23:23:53.927Z,19.10
2017-07-10T23:26:21.715Z,19.10
2017-07-10T23:28:49.567Z,19.00
2017-07-10T23:31:18.003Z,19.10
2017-07-10T23:33:45.592Z,19.00
2017-07-10T23:36:13.208Z,19.10
2017-07-10T23:38:40.795Z,19.10
2017-07-10T23:41:08.367Z,19.00
2017-07-10T23:43:35.959Z,19.00
2017-07-10T23:46:04.275Z,18.80
2017-07-10T23:48:31.956Z,18.80
2017-07-10T23:50:59.520Z,18.90
2017-07-10T23:53:27.095Z,18.80
2017-07-10T23:55:54.643Z,18.70
2017-07-10T23:58:22.211Z,18.60
